Time;durP1;ratioP1;P1;durP2;ratioP2;P2;SDS_P1;SDS_P2;PMS_P1;PMS_P2;Temp;Humidity;BMP_temperature;BMP_pressure;BME280_temperature;BME280_humidity;BME280_pressure;Samples;Min_cycle;Max_cycle;Signal;HPM_P1;HPM_P2
2022/03/18 00:02:22;;;;;;;8.30;7.50;;;;;;;3.38;73.85;101458.16;5071460;28;20191;-60
2022/03/18 00:04:50;;;;;;;10.93;8.17;;;;;;;3.19;74.51;101452.44;5071182;28;20212;-61
2022/03/18 00:07:20;;;;;;;12.80;8.10;;;;;;;3.28;74.84;101458.25;5071306;28;20188;-61
2022/03/18 00:09:46;;;;;;;10.90;7.47;;;;;;;3.29;74.14;101466.75;5071205;28;20230;-61
2022/03/18 00:12:13;;;;;;;11.53;7.63;;;;;;;3.28;74.08;101463.31;5071073;28;20688;-61
2022/03/18 00:14:41;;;;;;;9.30;7.63;;;;;;;3.25;74.61;101475.78;5071248;28;20274;-60
2022/03/18 00:17:08;;;;;;;11.27;8.40;;;;;;;3.15;75.49;101480.94;5070746;28;20188;-60
2022/03/18 00:19:35;;;;;;;11.13;7.50;;;;;;;3.10;75.48;101469.53;5071100;28;20636;-61
2022/03/18 00:22:03;;;;;;;8.93;7.30;;;;;;;3.15;75.56;101469.88;5070805;28;20193;-64
2022/03/18 00:24:32;;;;;;;9.60;7.70;;;;;;;3.19;75.75;101477.84;5070766;28;20221;-60
2022/03/18 00:26:59;;;;;;;10.70;7.73;;;;;;;3.29;75.78;101470.19;5070682;28;20200;-61
2022/03/18 00:29:26;;;;;;;10.03;7.63;;;;;;;3.26;74.79;101463.97;5070903;28;20678;-60
2022/03/18 00:31:53;;;;;;;9.87;7.70;;;;;;;3.18;74.69;101465.94;5070973;28;20277;-61
2022/03/18 00:34:20;;;;;;;10.80;8.57;;;;;;;3.12;75.55;101467.09;5070100;28;20184;-61
2022/03/18 00:36:47;;;;;;;9.87;7.87;;;;;;;3.12;74.88;101465.47;5070902;28;20195;-61
2022/03/18 00:39:14;;;;;;;12.87;8.93;;;;;;;3.00;75.10;101456.88;5070544;28;20198;-61
2022/03/18 00:41:43;;;;;;;9.50;8.37;;;;;;;3.09;74.21;101462.69;5070558;28;20196;-62
2022/03/18 00:44:10;;;;;;;10.57;7.77;;;;;;;3.07;74.50;101466.75;5070684;28;21122;-62
2022/03/18 00:46:37;;;;;;;9.00;7.97;;;;;;;2.86;74.91;101445.66;5070925;28;20188;-61
2022/03/18 00:52:05;;;;;;;13.10;9.30;;;;;;;2.94;74.64;101459.84;5070600;28;20187;-60
2022/03/18 00:54:36;;;;;;;9.77;8.47;;;;;;;3.04;74.91;101458.91;5070711;28;20256;-61
2022/03/18 00:57:05;;;;;;;9.03;7.53;;;;;;;3.07;74.83;101463.34;5070286;28;20191;-61
2022/03/18 00:59:32;;;;;;;10.00;8.30;;;;;;;3.12;74.22;101469.66;5069962;28;20544;-62
2022/03/18 01:01:59;;;;;;;9.83;7.73;;;;;;;3.07;74.19;101463.34;5070497;28;20634;-61
2022/03/18 01:04:28;;;;;;;9.67;7.87;;;;;;;3.11;72.84;101470.41;5070231;28;20306;-61
2022/03/18 01:06:56;;;;;;;12.33;8.93;;;;;;;3.10;72.89;101483.88;5070540;28;20254;-61
2022/03/18 01:09:23;;;;;;;12.37;7.73;;;;;;;2.96;73.49;101483.72;5070808;28;20191;-61
2022/03/18 01:11:51;;;;;;;12.63;8.10;;;;;;;2.80;74.50;101488.34;5070602;28;20223;-60
2022/03/18 01:14:20;;;;;;;9.93;7.70;;;;;;;2.77;74.95;101487.22;5070137;28;20202;-61
2022/03/18 01:16:47;;;;;;;12.83;8.57;;;;;;;2.76;75.11;101487.97;5070362;28;20187;-60
2022/03/18 01:19:14;;;;;;;10.20;8.50;;;;;;;2.64;75.05;101467.59;5070460;28;20187;-59
2022/03/18 01:21:42;;;;;;;15.60;10.20;;;;;;;2.91;75.33;101496.81;5070579;28;20570;-59
2022/03/18 01:24:10;;;;;;;11.37;8.70;;;;;;;3.05;75.08;101495.34;5070278;28;20248;-60
2022/03/18 01:26:37;;;;;;;11.17;8.30;;;;;;;3.13;74.82;101497.69;5070366;28;20582;-59
2022/03/18 01:29:04;;;;;;;14.63;10.07;;;;;;;3.19;74.47;101499.81;5069728;28;20928;-60
2022/03/18 01:31:32;;;;;;;11.47;8.93;;;;;;;3.34;74.48;101501.91;5070442;28;20262;-59
2022/03/18 01:33:59;;;;;;;10.00;8.13;;;;;;;3.34;73.63;101513.72;5069977;28;20282;-61
2022/03/18 01:36:26;;;;;;;9.00;8.10;;;;;;;3.26;72.37;101513.13;5070006;28;20668;-60
2022/03/18 01:38:53;;;;;;;11.80;9.50;;;;;;;3.27;72.95;101514.03;5069064;28;20931;-60
2022/03/18 01:41:21;;;;;;;12.07;7.97;;;;;;;3.40;72.43;101511.66;5069758;28;20200;-61
2022/03/18 01:43:48;;;;;;;10.10;7.97;;;;;;;3.47;72.46;101506.25;5069744;28;20294;-59
2022/03/18 01:46:18;;;;;;;8.93;7.20;;;;;;;3.54;72.54;101513.59;5073973;28;20230;-60
2022/03/18 01:48:47;;;;;;;8.37;6.67;;;;;;;3.55;73.19;101502.63;5074355;28;20208;-60
2022/03/18 01:51:15;;;;;;;11.13;7.23;;;;;;;3.53;71.81;101512.69;5074105;28;20302;-60
2022/03/18 01:53:43;;;;;;;10.37;7.27;;;;;;;3.56;71.96;101522.22;5073873;28;20199;-60
2022/03/18 01:56:11;;;;;;;12.40;8.43;;;;;;;3.49;71.77;101522.50;5073836;28;20210;-60
2022/03/18 01:58:38;;;;;;;10.17;7.63;;;;;;;3.52;72.48;101526.16;5073770;28;20236;-61
2022/03/18 02:01:05;;;;;;;11.67;8.33;;;;;;;3.55;72.61;101528.06;5074014;28;20192;-61
2022/03/18 02:03:32;;;;;;;9.97;8.77;;;;;;;3.56;72.81;101537.47;5073588;28;20247;-60
2022/03/18 02:06:00;;;;;;;8.77;7.40;;;;;;;3.56;72.13;101530.72;5073437;28;20215;-61
2022/03/18 02:08:28;;;;;;;9.53;8.30;;;;;;;3.53;71.18;101537.22;5073518;28;20191;-61
2022/03/18 02:10:55;;;;;;;9.23;7.83;;;;;;;3.55;72.20;101535.69;5073387;28;20188;-60
2022/03/18 02:13:22;;;;;;;8.03;7.23;;;;;;;3.54;72.18;101539.88;5073409;28;20658;-60
2022/03/18 02:15:49;;;;;;;11.23;8.73;;;;;;;3.52;72.32;101522.72;5072828;28;20444;-61
2022/03/18 02:18:15;;;;;;;9.50;8.43;;;;;;;3.60;72.30;101548.75;5073250;28;20197;-60
2022/03/18 02:20:43;;;;;;;9.37;7.00;;;;;;;3.60;71.80;101544.53;5073218;28;20681;-61
2022/03/18 02:23:11;;;;;;;9.27;6.90;;;;;;;3.47;70.99;101541.81;5073183;28;20195;-60
2022/03/18 02:25:38;;;;;;;9.57;6.93;;;;;;;3.48;71.39;101538.53;5073037;28;20308;-59
2022/03/18 02:28:06;;;;;;;9.50;7.13;;;;;;;3.42;71.30;101545.69;5073118;28;20278;-59
2022/03/18 02:30:34;;;;;;;9.83;7.00;;;;;;;3.39;71.93;101553.94;5073306;28;20195;-57
2022/03/18 02:33:02;;;;;;;9.80;7.23;;;;;;;3.32;72.23;101551.72;5073467;28;20664;-57
2022/03/18 02:35:29;;;;;;;10.30;8.10;;;;;;;3.36;72.21;101551.16;5073440;28;20184;-58
2022/03/18 02:37:57;;;;;;;10.57;7.47;;;;;;;3.26;72.95;101550.34;5073214;28;20199;-58
2022/03/18 02:40:27;;;;;;;9.97;6.53;;;;;;;3.20;72.97;101544.78;5073267;28;20609;-58
2022/03/18 02:42:54;;;;;;;10.50;7.17;;;;;;;3.12;72.98;101548.38;5073064;28;20195;-58
2022/03/18 02:45:21;;;;;;;11.82;7.88;;;;;;;3.11;73.77;101549.13;5072374;28;20449;-58
2022/03/18 02:47:48;;;;;;;10.57;7.60;;;;;;;3.15;73.74;101556.22;5072796;28;20283;-57
2022/03/18 02:50:16;;;;;;;7.50;6.50;;;;;;;3.18;73.67;101559.03;5072911;28;20199;-58
2022/03/18 02:52:44;;;;;;;10.17;6.57;;;;;;;3.13;73.17;101550.16;5072729;28;20248;-58
2022/03/18 02:55:12;;;;;;;11.10;8.55;;;;;;;3.20;73.48;101558.38;5071723;28;20445;-57
2022/03/18 02:57:41;;;;;;;9.50;7.13;;;;;;;3.25;72.73;101557.06;5072067;28;20193;-57
2022/03/18 03:00:09;;;;;;;9.40;7.43;;;;;;;3.20;72.66;101563.44;5072365;28;20227;-57
2022/03/18 03:02:36;;;;;;;11.20;7.40;;;;;;;3.20;72.96;101565.09;5072625;28;20575;-58
2022/03/18 03:08:02;;;;;;;10.00;6.97;;;;;;;3.13;73.42;101562.84;5072542;28;20264;-58
2022/03/18 03:10:30;;;;;;;9.53;7.17;;;;;;;2.96;73.34;101580.19;5072467;28;20561;-58
2022/03/18 03:13:01;;;;;;;9.93;7.37;;;;;;;2.94;74.35;101576.63;5072483;28;20285;-58
2022/03/18 03:15:28;;;;;;;10.57;7.40;;;;;;;2.86;74.76;101576.78;5072341;28;20245;-58
2022/03/18 03:17:55;;;;;;;9.57;7.17;;;;;;;2.89;74.94;101577.03;5072193;28;20210;-58
2022/03/18 03:20:22;;;;;;;9.63;7.87;;;;;;;2.87;74.84;101584.53;5072466;28;20560;-58
2022/03/18 03:22:49;;;;;;;9.82;7.38;;;;;;;2.77;74.89;101571.88;5072079;28;20536;-58
2022/03/18 03:25:16;;;;;;;9.83;7.63;;;;;;;2.81;74.47;101578.06;5072084;28;20586;-58
2022/03/18 03:27:43;;;;;;;9.50;7.67;;;;;;;2.72;74.87;101587.50;5072327;28;20199;-58
2022/03/18 03:30:12;;;;;;;12.67;8.30;;;;;;;2.67;75.46;101597.25;5071977;28;20286;-58
2022/03/18 03:32:39;;;;;;;9.83;7.73;;;;;;;2.60;75.46;101600.09;5072149;28;20203;-59
2022/03/18 03:35:08;;;;;;;10.23;7.63;;;;;;;2.60;75.27;101599.19;5072287;28;20294;-59
2022/03/18 03:37:35;;;;;;;11.43;8.40;;;;;;;2.58;75.29;101598.19;5071830;28;20188;-58
2022/03/18 03:40:03;;;;;;;13.40;8.43;;;;;;;2.60;75.51;101604.25;5071953;28;20271;-59
2022/03/18 03:42:30;;;;;;;9.13;8.13;;;;;;;2.62;75.63;101603.63;5071831;28;20195;-60
2022/03/18 03:44:57;;;;;;;14.63;9.53;;;;;;;2.57;75.53;101604.91;5071718;28;20321;-61
2022/03/18 03:47:25;;;;;;;12.50;9.03;;;;;;;2.52;75.64;101612.91;5071892;28;20196;-60
2022/03/18 03:49:52;;;;;;;10.87;9.00;;;;;;;2.54;76.04;101604.66;5071527;28;20196;-61
2022/03/18 03:52:19;;;;;;;12.70;9.37;;;;;;;2.20;76.35;101562.94;5071668;28;20195;-60
2022/03/18 03:54:46;;;;;;;12.63;9.37;;;;;;;2.49;76.71;101613.53;5071407;28;20192;-59
2022/03/18 03:57:13;;;;;;;14.87;9.17;;;;;;;2.48;76.89;101619.38;5071249;28;20203;-59
2022/03/18 03:59:40;;;;;;;13.93;9.87;;;;;;;2.50;76.76;101620.38;5071292;28;20594;-58
2022/03/18 04:02:08;;;;;;;16.23;10.43;;;;;;;2.57;76.92;101616.69;5071187;28;20441;-59
2022/03/18 04:04:36;;;;;;;15.43;9.77;;;;;;;2.53;76.38;101619.75;5071262;28;20195;-58
2022/03/18 04:07:03;;;;;;;12.87;10.00;;;;;;;2.56;76.50;101625.06;5071276;28;20198;-58
2022/03/18 04:09:30;;;;;;;12.87;9.00;;;;;;;2.45;76.41;101634.34;5071392;28;20202;-59
2022/03/18 04:11:58;;;;;;;14.68;11.45;;;;;;;2.48;76.67;101626.09;5070561;28;20469;-59
2022/03/18 04:14:25;;;;;;;12.00;10.40;;;;;;;2.41;76.93;101633.97;5077323;28;20203;-59
2022/03/18 04:16:52;;;;;;;14.27;10.93;;;;;;;2.25;78.15;101631.81;5076875;28;20713;-59
2022/03/18 04:19:19;;;;;;;12.30;11.00;;;;;;;2.23;78.00;101633.31;5075505;28;20191;-58
2022/03/18 04:21:47;;;;;;;15.43;11.13;;;;;;;2.22;77.84;101632.47;5070924;28;20257;-58
2022/03/18 04:24:14;;;;;;;19.30;12.30;;;;;;;2.13;78.11;101628.25;5069817;28;20680;-59
2022/03/18 04:26:41;;;;;;;14.67;10.57;;;;;;;2.08;78.83;101637.13;5080081;28;20219;-59
2022/03/18 04:29:10;;;;;;;16.67;12.77;;;;;;;1.98;79.50;101629.53;5077952;28;20192;-58
2022/03/18 04:31:37;;;;;;;20.20;15.70;;;;;;;1.87;79.74;101638.72;5079918;28;20226;-58
2022/03/18 04:34:04;;;;;;;19.87;14.63;;;;;;;1.78;80.85;101646.47;5078713;28;20192;-58
2022/03/18 04:36:31;;;;;;;18.20;15.93;;;;;;;1.78;81.07;101637.97;5070558;28;20199;-58
2022/03/18 04:39:01;;;;;;;22.67;15.83;;;;;;;1.81;81.73;101647.47;5070590;28;20282;-58
2022/03/18 04:41:28;;;;;;;21.23;16.67;;;;;;;1.90;81.28;101650.78;5070707;28;20430;-58
2022/03/18 04:43:55;;;;;;;17.50;13.87;;;;;;;2.00;81.20;101651.69;5070773;28;20442;-58
2022/03/18 04:46:22;;;;;;;19.87;13.90;;;;;;;1.97;80.63;101648.00;5070973;28;20273;-58
2022/03/18 04:48:49;;;;;;;16.40;13.60;;;;;;;1.98;80.54;101649.81;5070954;28;20989;-58
2022/03/18 04:51:16;;;;;;;19.53;14.40;;;;;;;1.99;80.58;101660.06;5070601;28;20201;-58
2022/03/18 04:53:43;;;;;;;16.57;14.43;;;;;;;2.02;80.49;101656.88;5070799;28;20207;-58
2022/03/18 04:57:15;;;;;;;17.80;15.17;;;;;;;2.09;80.50;101661.69;5070627;28;20306;-59
2022/03/18 04:58:58;;;;;;;24.03;15.60;;;;;;;2.13;80.64;101663.75;5070489;28;20231;-59
2022/03/18 05:01:26;;;;;;;21.77;14.67;;;;;;;2.18;80.29;101673.53;5070534;28;20261;-58
2022/03/18 05:03:55;;;;;;;19.30;14.03;;;;;;;2.25;79.64;101667.31;5070660;28;20192;-58
2022/03/18 05:06:22;;;;;;;17.60;14.60;;;;;;;2.28;79.93;101668.44;5070651;28;20277;-58
2022/03/18 05:08:49;;;;;;;17.73;14.63;;;;;;;2.33;79.43;101666.31;5070346;28;20191;-58
2022/03/18 05:11:17;;;;;;;19.13;14.90;;;;;;;2.35;79.10;101675.81;5070239;28;20586;-58
2022/03/18 05:13:44;;;;;;;16.83;14.93;;;;;;;2.45;78.47;101677.47;5070323;28;20200;-58
2022/03/18 05:16:11;;;;;;;22.47;15.20;;;;;;;2.45;78.45;101669.84;5070118;28;20241;-58
2022/03/18 05:18:38;;;;;;;21.40;15.70;;;;;;;2.52;78.51;101673.78;5070263;28;20286;-58
2022/03/18 05:21:05;;;;;;;21.90;16.10;;;;;;;2.59;78.59;101674.41;5069723;28;20191;-57
2022/03/18 05:23:32;;;;;;;23.80;18.83;;;;;;;2.61;77.80;101677.97;5070204;28;20195;-58
2022/03/18 05:25:59;;;;;;;30.47;21.87;;;;;;;2.52;77.12;101679.75;5070121;28;20341;-58
2022/03/18 05:28:28;;;;;;;29.33;19.67;;;;;;;2.50;77.40;101685.47;5070135;28;20666;-58
2022/03/18 05:30:54;;;;;;;20.67;16.10;;;;;;;2.48;77.18;101687.88;5069783;28;20202;-58
2022/03/18 05:33:21;;;;;;;24.27;16.23;;;;;;;2.47;76.39;101687.75;5070278;28;20195;-57
2022/03/18 05:35:48;;;;;;;27.90;21.93;;;;;;;2.48;76.68;101698.00;5070221;28;20184;-57
2022/03/18 05:38:15;;;;;;;36.43;26.63;;;;;;;2.50;77.57;101700.69;5069781;28;20662;-58
2022/03/18 05:40:42;;;;;;;32.70;24.37;;;;;;;2.61;77.00;101705.88;5069745;28;20203;-58
2022/03/18 05:43:10;;;;;;;28.10;21.30;;;;;;;2.61;76.17;101718.56;5069901;28;20245;-58
2022/03/18 05:45:38;;;;;;;36.80;25.03;;;;;;;2.51;76.62;101716.03;5070074;28;20285;-58
2022/03/18 05:48:07;;;;;;;33.10;25.13;;;;;;;2.51;76.20;101723.66;5069589;28;20192;-58
2022/03/18 05:50:35;;;;;;;43.30;27.37;;;;;;;2.58;76.90;101717.44;5069371;28;20191;-60
2022/03/18 05:53:02;;;;;;;35.43;23.87;;;;;;;2.63;76.31;101719.59;5069629;28;20267;-60
2022/03/18 05:56:52;;;;;;;34.40;24.90;;;;;;;2.64;76.06;101718.81;5069394;28;20194;-60
2022/03/18 05:58:17;;;;;;;33.40;22.85;;;;;;;2.76;75.54;101737.63;5068645;28;20986;-60
2022/03/18 06:00:46;;;;;;;27.77;22.17;;;;;;;2.82;75.30;101733.06;5069764;28;20200;-60
2022/03/18 06:03:13;;;;;;;28.63;21.63;;;;;;;2.88;75.31;101736.06;5069622;28;20280;-61
2022/03/18 06:05:42;;;;;;;24.40;17.87;;;;;;;2.88;74.60;101741.16;5069457;28;20219;-61
2022/03/18 06:13:34;;;;;;;23.63;16.53;;;;;;;2.87;74.16;101747.00;5069473;28;20215;-60
2022/03/18 06:16:02;;;;;;;19.87;17.27;;;;;;;2.65;73.76;101746.00;5069393;28;20270;-60
2022/03/18 06:18:29;;;;;;;24.47;15.50;;;;;;;2.76;73.67;101752.84;5069300;28;20192;-61
2022/03/18 06:20:57;;;;;;;21.03;17.03;;;;;;;2.75;73.96;101755.25;5069330;28;20202;-60
2022/03/18 06:23:24;;;;;;;19.77;15.57;;;;;;;2.82;73.38;101760.06;5069027;28;20195;-60
2022/03/18 06:25:50;;;;;;;23.87;15.70;;;;;;;2.84;72.98;101749.28;5068979;28;20586;-61
2022/03/18 06:28:18;;;;;;;22.73;15.93;;;;;;;2.99;72.52;101750.53;5069282;28;20201;-61
2022/03/18 06:30:45;;;;;;;22.90;15.57;;;;;;;3.17;71.95;101761.31;5069176;28;20211;-58
2022/03/18 06:33:13;;;;;;;26.80;17.10;;;;;;;3.20;71.40;101759.03;5072463;28;20192;-58
2022/03/18 06:35:40;;;;;;;21.77;16.53;;;;;;;3.32;69.76;101756.59;5072387;28;20196;-57
2022/03/18 06:38:08;;;;;;;19.87;15.47;;;;;;;3.42;69.49;101757.47;5072781;28;20199;-59
2022/03/18 06:40:35;;;;;;;22.97;15.63;;;;;;;3.45;67.95;101761.91;5072522;28;20214;-58
2022/03/18 06:43:02;;;;;;;23.03;15.20;;;;;;;3.51;68.31;101773.47;5072035;28;20196;-58
2022/03/18 06:45:29;;;;;;;23.20;18.33;;;;;;;3.62;67.00;101770.88;5070826;28;20532;-58
2022/03/18 06:47:56;;;;;;;28.40;17.67;;;;;;;3.69;65.59;101773.13;5072008;28;20204;-59
2022/03/18 06:50:25;;;;;;;25.33;17.07;;;;;;;3.67;65.13;101777.22;5072245;28;20196;-58
2022/03/18 06:52:51;;;;;;;29.80;18.67;;;;;;;3.61;65.48;101784.34;5072330;28;20195;-58
2022/03/18 06:55:18;;;;;;;23.93;18.17;;;;;;;3.72;65.68;101775.91;5072220;28;20294;-58
2022/03/18 06:57:45;;;;;;;22.00;16.60;;;;;;;3.80;65.20;101785.03;5072185;28;20203;-58
2022/03/18 07:00:14;;;;;;;24.97;16.67;;;;;;;3.91;64.37;101777.50;5072101;28;20241;-57
2022/03/18 07:02:41;;;;;;;30.47;15.90;;;;;;;4.06;63.76;101785.47;5072281;28;20195;-58
2022/03/18 07:05:09;;;;;;;23.20;16.90;;;;;;;4.22;63.35;101790.09;5072098;28;20198;-58
2022/03/18 07:07:37;;;;;;;28.50;17.73;;;;;;;4.21;61.85;101801.03;5071889;28;20255;-57
2022/03/18 07:10:05;;;;;;;20.55;17.30;;;;;;;4.13;60.91;101790.25;5071382;28;20569;-58
2022/03/18 07:12:33;;;;;;;17.80;14.20;;;;;;;4.27;59.59;101793.88;5072179;28;20728;-58
2022/03/18 07:15:00;;;;;;;18.80;14.67;;;;;;;4.44;60.19;101796.06;5072132;28;20547;-58
2022/03/18 07:20:12;;;;;;;20.50;14.02;;;;;;;4.43;56.58;101794.28;5070766;28;20502;-57
2022/03/18 07:22:41;;;;;;;14.53;11.07;;;;;;;4.35;55.73;101793.69;5071726;28;20195;-57
2022/03/18 07:25:09;;;;;;;12.77;8.80;;;;;;;4.34;52.33;101796.13;5071831;28;20581;-58
2022/03/18 07:27:36;;;;;;;13.03;10.37;;;;;;;4.43;53.52;101796.81;5071522;28;20246;-57
2022/03/18 07:30:03;;;;;;;16.27;11.07;;;;;;;4.33;54.53;101809.63;5071527;28;20195;-58
2022/03/18 07:32:30;;;;;;;14.80;10.53;;;;;;;4.13;53.45;101797.88;5071172;28;20192;-58
2022/03/18 07:34:57;;;;;;;15.10;10.00;;;;;;;4.05;53.69;101797.28;5071184;28;20302;-57
2022/03/18 07:37:26;;;;;;;14.53;10.93;;;;;;;4.02;53.39;101783.44;5073624;28;20203;-58
2022/03/18 07:39:54;;;;;;;9.33;8.23;;;;;;;3.93;48.35;101814.13;5079554;28;20274;-57
2022/03/18 07:42:21;;;;;;;13.37;8.30;;;;;;;4.08;49.84;101806.81;5080931;28;20287;-58
2022/03/18 07:44:48;;;;;;;13.13;9.70;;;;;;;4.25;48.99;101810.69;5066528;28;20212;-58
2022/03/18 07:47:15;;;;;;;13.07;10.95;;;;;;;4.51;50.14;101811.03;5067131;28;20452;-60
2022/03/18 07:49:41;;;;;;;13.93;9.43;;;;;;;4.74;46.77;101814.59;5071096;28;20200;-60
2022/03/18 07:52:08;;;;;;;12.47;9.03;;;;;;;4.93;45.99;101824.50;5058903;28;20654;-61
2022/03/18 07:54:35;;;;;;;10.20;8.53;;;;;;;4.79;44.71;101814.94;5051325;28;20203;-61
2022/03/18 07:57:04;;;;;;;12.75;10.00;;;;;;;4.82;45.38;101817.72;5050274;28;20431;-61
2022/03/18 07:59:31;;;;;;;12.77;8.97;;;;;;;4.72;43.42;101807.59;5051089;28;20329;-60
2022/03/18 08:01:57;;;;;;;12.67;8.97;;;;;;;4.79;45.56;101804.75;5051274;28;20295;-60
2022/03/18 08:04:24;;;;;;;14.40;8.97;;;;;;;4.95;44.89;101811.88;5056250;28;20677;-60
2022/03/18 08:06:52;;;;;;;13.07;9.23;;;;;;;5.20;44.81;101811.28;5071032;28;20219;-60
2022/03/18 08:09:20;;;;;;;11.20;8.37;;;;;;;5.06;43.77;101814.47;5070736;28;20201;-61
2022/03/18 08:11:47;;;;;;;15.57;9.00;;;;;;;5.17;45.09;101800.84;5070775;28;20206;-62
2022/03/18 08:14:15;;;;;;;14.27;8.93;;;;;;;5.42;44.12;101800.13;5070932;28;20222;-62
2022/03/18 08:16:42;;;;;;;11.53;8.70;;;;;;;5.44;43.48;101802.00;5070641;28;20195;-60
2022/03/18 08:19:09;;;;;;;13.87;9.23;;;;;;;5.44;43.22;101796.03;5070883;28;20214;-60
2022/03/18 08:21:36;;;;;;;12.15;10.15;;;;;;;5.28;43.79;101797.44;5077204;28;20428;-61
2022/03/18 08:24:03;;;;;;;13.10;10.53;;;;;;;5.30;43.73;101800.13;5080220;28;20188;-61
2022/03/18 08:26:30;;;;;;;14.23;8.40;;;;;;;5.38;45.02;101790.47;5079298;28;20221;-58
2022/03/18 08:28:57;;;;;;;12.43;8.97;;;;;;;5.55;44.22;101787.50;5081558;28;20539;-58
2022/03/18 08:31:26;;;;;;;11.43;8.67;;;;;;;5.67;43.28;101786.72;5079230;28;20276;-57
2022/03/18 08:33:53;;;;;;;10.40;7.47;;;;;;;5.46;41.62;101784.28;5070511;28;20230;-57
2022/03/18 08:36:20;;;;;;;9.10;7.70;;;;;;;5.30;41.47;101789.94;5070554;28;20290;-59
2022/03/18 08:38:47;;;;;;;9.93;7.90;;;;;;;5.12;40.64;101786.00;5070790;28;20199;-58
2022/03/18 08:41:14;;;;;;;9.57;6.80;;;;;;;4.61;39.69;101791.50;5071099;28;20205;-57
2022/03/18 08:43:41;;;;;;;7.37;6.33;;;;;;;4.61;40.16;101788.06;5070590;28;20229;-57
2022/03/18 08:46:08;;;;;;;9.33;6.63;;;;;;;4.55;40.32;101790.16;5070349;28;20594;-59
2022/03/18 08:48:36;;;;;;;7.70;6.53;;;;;;;4.45;40.01;101785.13;5070318;28;20191;-57
2022/03/18 08:51:03;;;;;;;12.27;8.03;;;;;;;4.52;40.43;101782.28;5069689;28;20195;-57
2022/03/18 08:53:30;;;;;;;11.20;7.50;;;;;;;4.67;40.82;101783.44;5070743;28;20205;-58
2022/03/18 08:55:57;;;;;;;9.90;8.27;;;;;;;4.59;40.45;101784.50;5065475;28;20450;-58
2022/03/18 08:58:24;;;;;;;7.83;7.03;;;;;;;4.40;40.66;101787.31;5069780;28;20196;-57
2022/03/18 09:00:51;;;;;;;11.00;8.00;;;;;;;4.51;40.88;101781.38;5070021;28;20199;-58
2022/03/18 09:03:18;;;;;;;12.50;9.13;;;;;;;4.76;41.11;101779.03;5069968;28;20196;-58
2022/03/18 09:05:47;;;;;;;13.35;10.25;;;;;;;5.16;41.56;101773.63;5061189;28;20884;-58
2022/03/18 09:08:14;;;;;;;10.37;8.20;;;;;;;5.45;40.13;101769.75;5049986;28;20216;-58
2022/03/18 09:10:42;;;;;;;9.43;7.70;;;;;;;5.46;39.68;101761.34;5049817;28;20668;-58
2022/03/18 09:13:08;;;;;;;10.50;7.10;;;;;;;5.63;40.07;101755.81;5049712;28;20306;-58
2022/03/18 09:15:35;;;;;;;9.07;7.73;;;;;;;5.83;39.62;101755.53;5049683;28;20277;-58
2022/03/18 09:18:02;;;;;;;10.73;7.80;;;;;;;6.06;39.16;101759.75;5049275;28;20184;-57
2022/03/18 09:20:29;;;;;;;8.80;7.17;;;;;;;6.19;38.74;101757.28;5049412;28;20284;-58
2022/03/18 09:22:57;;;;;;;9.33;7.60;;;;;;;6.26;38.38;101759.50;5049569;28;20551;-57
2022/03/18 09:25:25;;;;;;;8.90;7.17;;;;;;;6.41;38.32;101750.31;5060828;28;20203;-58
2022/03/18 09:27:52;;;;;;;9.27;7.67;;;;;;;6.35;38.08;101758.44;5068685;28;20694;-58
2022/03/18 09:30:19;;;;;;;11.30;7.90;;;;;;;6.09;38.85;101755.75;5068566;28;20200;-58
2022/03/18 09:32:46;;;;;;;10.47;7.50;;;;;;;5.87;38.68;101755.03;5068834;28;20879;-58
2022/03/18 09:35:16;;;;;;;9.10;7.73;;;;;;;6.13;38.59;101767.94;5068733;28;20278;-58
2022/03/18 09:37:43;;;;;;;11.17;7.87;;;;;;;6.28;39.14;101751.16;5068667;28;20193;-58
2022/03/18 09:40:12;;;;;;;12.07;7.53;;;;;;;6.40;38.48;101744.31;5068816;28;20204;-58
2022/03/18 09:42:54;;;;;;;9.90;8.50;;;;;;;6.45;38.44;101745.53;5074051;28;20500;-58
2022/03/18 09:45:21;;;;;;;11.57;8.17;;;;;;;6.65;38.46;101739.22;5066083;28;20208;-58
2022/03/18 09:47:50;;;;;;;13.53;8.93;;;;;;;6.83;37.66;101742.13;5068950;28;20205;-56
2022/03/18 09:50:17;;;;;;;12.77;8.67;;;;;;;7.07;37.55;101749.75;5068993;28;20194;-58
2022/03/18 09:52:44;;;;;;;8.97;7.73;;;;;;;7.13;36.65;101744.16;5065846;28;20582;-58
2022/03/18 09:55:12;;;;;;;9.70;7.77;;;;;;;7.26;36.64;101739.06;5071626;28;20193;-60
2022/03/18 09:57:39;;;;;;;10.97;8.20;;;;;;;7.35;36.93;101739.66;5068544;28;20638;-60
2022/03/18 10:00:07;;;;;;;10.93;8.37;;;;;;;7.32;36.75;101733.44;5068524;28;20229;-61
2022/03/18 10:02:34;;;;;;;11.83;8.07;;;;;;;7.24;37.10;101722.75;5068857;28;20196;-60
2022/03/18 10:05:02;;;;;;;12.67;8.13;;;;;;;7.27;36.70;101730.59;5065807;28;20256;-60
2022/03/18 10:07:30;;;;;;;10.90;8.93;;;;;;;7.26;36.81;101728.81;5072341;28;20221;-61
2022/03/18 10:10:10;;;;;;;17.23;9.67;;;;;;;7.36;37.40;101731.19;5083896;28;20374;-60
2022/03/18 10:12:41;;;;;;;10.70;8.00;;;;;;;7.38;36.81;101732.19;5072717;28;20207;-60
2022/03/18 10:15:11;;;;;;;9.97;7.63;;;;;;;7.20;35.81;101736.09;5063657;28;20254;-61
2022/03/18 10:17:40;;;;;;;13.27;9.07;;;;;;;7.10;36.80;101734.63;5073080;28;20397;-61
2022/03/18 10:20:08;;;;;;;11.97;8.23;;;;;;;7.00;36.26;101739.03;5072384;28;20193;-61
2022/03/18 10:22:36;;;;;;;9.18;8.27;;;;;;;6.85;36.01;101733.78;5080771;28;20524;-58
2022/03/18 10:25:04;;;;;;;8.17;7.37;;;;;;;6.68;35.48;101735.97;5078396;28;20198;-57
2022/03/18 10:27:32;;;;;;;8.53;7.63;;;;;;;6.52;36.10;101736.63;5072577;28;20221;-57
2022/03/18 10:30:00;;;;;;;9.57;8.50;;;;;;;6.38;36.96;101737.34;5071478;28;20204;-58
2022/03/18 10:32:28;;;;;;;9.70;8.03;;;;;;;6.57;37.70;101730.16;5055423;28;20209;-58
2022/03/18 10:37:42;;;;;;;10.27;8.23;;;;;;;7.46;37.09;101720.78;5071696;28;20628;-57
2022/03/18 10:40:11;;;;;;;9.97;7.67;;;;;;;7.79;35.68;101716.91;5072216;28;20203;-58
2022/03/18 10:42:38;;;;;;;9.13;6.90;;;;;;;7.98;34.08;101690.78;5072665;28;20298;-57
2022/03/18 10:45:08;;;;;;;10.70;8.17;;;;;;;8.13;34.74;101677.22;5059364;28;20195;-57
2022/03/18 10:47:36;;;;;;;12.93;8.33;;;;;;;8.24;34.22;101703.50;5053522;28;20308;-58
2022/03/18 10:50:19;;;;;;;8.83;7.57;;;;;;;8.32;33.47;101705.75;5069206;28;20514;-58
2022/03/18 10:53:04;;;;;;;9.97;6.97;;;;;;;8.26;33.74;101709.59;5073839;28;20193;-58
2022/03/18 10:55:34;;;;;;;8.93;8.02;;;;;;;8.35;34.40;101714.44;5068647;28;20441;-58
2022/03/18 10:58:03;;;;;;;7.47;6.73;;;;;;;8.57;33.29;101702.97;5072219;28;20567;-59
2022/03/18 11:00:33;;;;;;;12.03;7.60;;;;;;;8.84;33.02;101703.75;5072422;28;20751;-59
2022/03/18 11:03:03;;;;;;;10.30;7.03;;;;;;;8.41;32.91;101620.88;5067298;28;20216;-58
2022/03/18 11:05:32;;;;;;;7.67;6.70;;;;;;;8.89;31.86;101692.94;5072186;28;20716;-57
2022/03/18 11:08:01;;;;;;;8.07;7.10;;;;;;;8.16;32.13;101700.47;5078675;28;20571;-59
2022/03/18 11:13:15;;;;;;;12.33;8.03;;;;;;;8.17;34.97;101698.78;5069178;28;20192;-58
2022/03/18 11:15:46;;;;;;;9.00;7.27;;;;;;;8.30;34.78;101696.19;5052837;28;20195;-58
2022/03/18 11:18:14;;;;;;;8.67;6.80;;;;;;;8.32;34.01;101697.22;5051216;28;20285;-58
2022/03/18 11:20:43;;;;;;;11.30;7.93;;;;;;;8.39;33.84;101691.63;5051698;28;20467;-58
2022/03/18 11:23:18;;;;;;;10.00;7.77;;;;;;;8.11;34.76;101693.28;5051666;28;20188;-58
2022/03/18 11:25:48;;;;;;;8.07;7.07;;;;;;;7.87;34.82;101679.88;5052094;28;20191;-58
2022/03/18 11:28:17;;;;;;;9.77;7.63;;;;;;;7.75;35.46;101683.38;5051799;28;20219;-59
2022/03/18 11:30:47;;;;;;;12.05;8.20;;;;;;;7.75;35.82;101678.25;5051514;28;20438;-57
2022/03/18 11:33:24;;;;;;;10.77;8.33;;;;;;;7.71;36.56;101672.03;5054077;28;20680;-57
2022/03/18 11:36:04;;;;;;;9.90;8.30;;;;;;;7.92;35.50;101678.47;5071542;28;20224;-58
2022/03/18 11:38:55;;;;;;;8.10;6.83;;;;;;;7.62;35.35;101674.91;5074260;28;20659;-58
2022/03/18 11:41:28;;;;;;;8.07;7.13;;;;;;;7.37;35.18;101680.94;5080498;28;20202;-58
2022/03/18 11:43:56;;;;;;;11.37;7.83;;;;;;;7.13;35.57;101650.47;5073218;28;20308;-58
2022/03/18 11:46:27;;;;;;;14.27;6.73;;;;;;;7.39;34.46;101674.25;5082254;28;20200;-58
2022/03/18 11:48:56;;;;;;;9.33;6.50;;;;;;;7.64;34.48;101668.22;5078302;28;20214;-57